Time;durP1;ratioP1;P1;durP2;ratioP2;P2;SDS_P1;SDS_P2;PMS_P1;PMS_P2;Temp;Humidity;BMP_temperature;BMP_pressure;BME280_temperature;BME280_humidity;BME280_pressure;Samples;Min_cycle;Max_cycle;Signal;HPM_P1;HPM_P2
2021/07/28 00:00:44;;;;;;;9.98;5.72;;;30.70;88.40;;;;;;5090627;28;20048;-53
2021/07/28 00:03:12;;;;;;;8.25;5.47;;;30.70;88.10;;;;;;5093414;28;20375;-52
2021/07/28 00:05:41;;;;;;;10.60;4.93;;;30.70;88.00;;;;;;5092594;28;20044;-50
2021/07/28 00:08:09;;;;;;;10.27;5.82;;;30.70;88.10;;;;;;5055551;28;20032;-53
2021/07/28 00:10:37;;;;;;;8.45;5.05;;;30.70;88.20;;;;;;5089642;28;20084;-53
2021/07/28 00:13:05;;;;;;;8.77;4.85;;;30.70;87.60;;;;;;5092886;28;20117;-54
2021/07/28 00:15:32;;;;;;;9.75;5.18;;;30.60;84.80;;;;;;5093081;28;20044;-51
2021/07/28 00:18:08;;;;;;;6.38;4.50;;;30.60;83.70;;;;;;5090987;28;20044;-52
2021/07/28 00:23:15;;;;;;;7.43;5.15;;;30.60;81.50;;;;;;5092934;28;20139;-50
2021/07/28 00:25:45;;;;;;;6.90;4.60;;;30.60;80.50;;;;;;5092960;28;20090;-56
2021/07/28 00:28:13;;;;;;;8.15;5.10;;;30.60;80.30;;;;;;5096908;28;20048;-56
2021/07/28 00:30:42;;;;;;;6.78;4.68;;;30.60;80.10;;;;;;5096472;28;20131;-52
2021/07/28 00:33:09;;;;;;;8.32;5.00;;;30.60;80.20;;;;;;5077488;28;20041;-54
2021/07/28 00:35:37;;;;;;;6.55;4.90;;;30.60;79.30;;;;;;5093611;28;20071;-55
2021/07/28 00:38:06;;;;;;;9.73;5.45;;;30.60;78.50;;;;;;5097170;28;20156;-54
2021/07/28 00:40:34;;;;;;;11.63;5.45;;;30.60;77.90;;;;;;5096665;28;20495;-54
2021/07/28 00:43:09;;;;;;;10.48;4.93;;;30.60;77.60;;;;;;5097046;28;20044;-54
2021/07/28 00:45:39;;;;;;;;;;;30.50;75.30;;;;;;5087894;28;20036;-55
2021/07/28 00:48:08;;;;;;;6.13;4.63;;;30.60;73.70;;;;;;5076993;28;19944;-55
2021/07/28 00:50:38;;;;;;;8.75;6.28;;;30.50;72.80;;;;;;5069028;28;20050;-55
2021/07/28 00:53:07;;;;;;;8.02;5.97;;;30.50;71.40;;;;;;5078360;28;20569;-52
2021/07/28 00:55:35;;;;;;;7.68;5.28;;;30.50;69.30;;;;;;5086878;28;20060;-53
2021/07/28 00:58:03;;;;;;;8.95;5.25;;;30.50;67.40;;;;;;5096991;28;20040;-54
2021/07/28 01:00:30;;;;;;;9.00;4.90;;;30.60;66.20;;;;;;5096462;28;20494;-54
2021/07/28 01:02:58;;;;;;;8.48;5.57;;;30.60;66.40;;;;;;5096711;28;20060;-53
2021/07/28 01:05:26;;;;;;;8.00;5.25;;;30.60;67.10;;;;;;5095915;28;20045;-56
2021/07/28 01:07:54;;;;;;;8.63;5.25;;;30.60;66.30;;;;;;5096070;28;20040;-53
2021/07/28 01:10:22;;;;;;;9.25;5.40;;;30.60;65.10;;;;;;5095843;28;20036;-54
2021/07/28 01:12:54;;;;;;;7.97;4.93;;;30.70;64.80;;;;;;5096395;28;20044;-55
2021/07/28 01:15:34;;;;;;;8.27;5.35;;;30.70;63.00;;;;;;5089096;28;20044;-53
2021/07/28 01:18:14;;;;;;;7.10;4.95;;;30.70;62.70;;;;;;5096585;28;20048;-53
2021/07/28 01:20:44;;;;;;;7.35;4.60;;;30.70;64.10;;;;;;5095754;28;20044;-52
2021/07/28 01:23:28;;;;;;;9.23;5.45;;;30.80;65.40;;;;;;5076534;28;20048;-54
2021/07/28 01:25:59;;;;;;;12.98;5.28;;;30.70;65.70;;;;;;5095445;28;20043;-54
2021/07/28 01:28:28;;;;;;;6.80;4.70;;;30.70;65.70;;;;;;5096192;28;20055;-53
2021/07/28 01:31:17;;;;;;;6.68;4.70;;;30.70;66.20;;;;;;5083355;28;20396;-54
2021/07/28 01:33:47;;;;;;;10.05;6.18;;;30.60;66.30;;;;;;5095868;28;20063;-53
2021/07/28 01:36:19;;;;;;;8.88;4.57;;;30.60;66.70;;;;;;5095983;28;20056;-54
2021/07/28 01:38:48;;;;;;;9.45;5.35;;;30.60;67.50;;;;;;5095099;28;20524;-52
2021/07/28 01:41:17;;;;;;;10.90;5.75;;;30.60;67.30;;;;;;5094029;28;20048;-53
2021/07/28 01:43:45;;;;;;;10.48;6.65;;;30.50;66.40;;;;;;5095351;28;20059;-53
2021/07/28 01:46:14;;;;;;;6.63;5.18;;;30.60;64.20;;;;;;5096088;28;20160;-51
2021/07/28 01:48:42;;;;;;;9.52;5.53;;;30.50;65.20;;;;;;5095401;28;20098;-53
2021/07/28 01:51:10;;;;;;;6.38;4.50;;;30.50;66.00;;;;;;5095534;28;20047;-55
2021/07/28 01:53:38;;;;;;;11.10;6.45;;;30.50;67.00;;;;;;5094481;28;20047;-53
2021/07/28 01:56:05;;;;;;;14.20;6.28;;;30.50;67.70;;;;;;5065963;28;20097;-53
2021/07/28 01:58:37;;;;;;;9.55;6.00;;;30.40;68.60;;;;;;5095971;28;20131;-51
2021/07/28 02:01:06;;;;;;;9.75;5.82;;;30.40;67.80;;;;;;5071052;28;20055;-53
2021/07/28 02:03:33;;;;;;;7.57;5.35;;;30.30;65.10;;;;;;5095760;28;20044;-54
2021/07/28 02:06:01;;;;;;;8.25;4.82;;;30.30;63.80;;;;;;5095054;28;20425;-51
2021/07/28 02:08:29;;;;;;;6.93;4.28;;;30.20;62.60;;;;;;5095376;28;20097;-55
2021/07/28 02:10:56;;;;;;;6.35;4.93;;;30.10;62.80;;;;;;5094739;28;20127;-54
2021/07/28 02:13:24;;;;;;;7.93;4.43;;;30.00;63.20;;;;;;5094489;28;20043;-53
2021/07/28 02:15:52;;;;;;;8.45;4.28;;;30.00;63.20;;;;;;5094744;28;20371;-53
2021/07/28 02:18:20;;;;;;;6.53;4.43;;;30.00;63.10;;;;;;5095504;28;20042;-54
2021/07/28 02:20:47;;;;;;;8.32;4.78;;;29.90;63.10;;;;;;5094852;28;20043;-55
2021/07/28 02:23:15;;;;;;;8.90;4.88;;;29.90;63.20;;;;;;5093954;28;20048;-54
2021/07/28 02:25:43;;;;;;;7.32;4.32;;;29.90;63.80;;;;;;5094617;28;20135;-54
2021/07/28 02:28:10;;;;;;;6.82;4.20;;;29.90;64.30;;;;;;5095290;28;20048;-54
2021/07/28 02:30:38;;;;;;;11.15;5.28;;;29.90;64.60;;;;;;5094200;28;20040;-56
2021/07/28 02:33:08;;;;;;;9.27;4.85;;;29.90;64.90;;;;;;5075029;28;20127;-56
2021/07/28 02:35:36;;;;;;;9.18;5.53;;;29.80;65.10;;;;;;5091146;28;20394;-56
2021/07/28 02:38:04;;;;;;;6.78;4.50;;;29.80;65.50;;;;;;5093478;28;20048;-56
2021/07/28 02:40:32;;;;;;;6.47;4.05;;;29.80;65.90;;;;;;5094105;28;20047;-56
2021/07/28 02:42:59;;;;;;;8.63;5.13;;;29.70;65.60;;;;;;5094782;28;20101;-56
2021/07/28 02:45:27;;;;;;;8.45;4.40;;;29.70;65.30;;;;;;5086602;28;20505;-56
2021/07/28 02:47:54;;;;;;;8.48;5.15;;;29.70;65.40;;;;;;5091783;28;20068;-57
2021/07/28 02:50:22;;;;;;;7.53;4.60;;;29.70;65.70;;;;;;5093023;28;20040;-54
2021/07/28 02:52:50;;;;;;;6.25;4.35;;;29.70;66.40;;;;;;5094403;28;20502;-56
2021/07/28 02:55:17;;;;;;;9.38;4.22;;;29.70;66.50;;;;;;5093921;28;20077;-56
2021/07/28 02:57:45;;;;;;;7.63;5.03;;;29.70;66.50;;;;;;5094798;28;20090;-56
2021/07/28 03:00:13;;;;;;;5.60;3.85;;;29.70;66.10;;;;;;5094191;28;20145;-56
2021/07/28 03:02:41;;;;;;;8.00;5.38;;;29.70;66.10;;;;;;5094471;28;20044;-57
2021/07/28 03:05:09;;;;;;;8.93;5.13;;;29.70;66.00;;;;;;5093970;28;20136;-55
2021/07/28 03:07:36;;;;;;;10.45;4.97;;;29.70;65.90;;;;;;5093940;28;20440;-56
2021/07/28 03:10:04;;;;;;;7.97;4.57;;;29.70;65.90;;;;;;5093937;28;20044;-56
2021/07/28 03:12:32;;;;;;;11.20;4.60;;;29.70;65.60;;;;;;5088284;28;20490;-55
2021/07/28 03:14:59;;;;;;;10.30;5.07;;;29.70;65.40;;;;;;5093532;28;20401;-56
2021/07/28 03:17:27;;;;;;;8.50;5.00;;;29.70;65.50;;;;;;5094276;28;20039;-55
2021/07/28 03:19:55;;;;;;;7.75;5.25;;;29.80;65.90;;;;;;5093409;28;20497;-57
2021/07/28 03:22:24;;;;;;;9.90;4.97;;;29.80;65.90;;;;;;5093998;28;20047;-55
2021/07/28 03:24:51;;;;;;;9.32;5.78;;;29.80;65.90;;;;;;5093402;28;20097;-56
2021/07/28 03:27:19;;;;;;;7.57;3.80;;;29.80;65.10;;;;;;5094186;28;20064;-56
2021/07/28 03:29:47;;;;;;;8.85;4.75;;;29.70;65.50;;;;;;5093590;28;20036;-55
2021/07/28 03:32:14;;;;;;;9.95;5.40;;;29.70;65.90;;;;;;5093747;28;20058;-57
2021/07/28 03:34:42;;;;;;;6.68;5.07;;;29.70;66.80;;;;;;5088777;28;20139;-55
2021/07/28 03:37:10;;;;;;;7.70;4.63;;;29.70;68.20;;;;;;5093673;28;20040;-56
2021/07/28 03:39:37;;;;;;;7.55;4.80;;;29.70;68.80;;;;;;5088746;28;20060;-56
2021/07/28 03:42:05;;;;;;;19.08;5.90;;;29.70;69.30;;;;;;5067118;28;20051;-54
2021/07/28 03:44:34;;;;;;;20.77;6.43;;;29.70;70.30;;;;;;5093099;28;20401;-56
2021/07/28 03:47:01;;;;;;;13.18;6.70;;;29.70;71.40;;;;;;5093634;28;20383;-56
2021/07/28 03:49:29;;;;;;;16.88;5.75;;;29.60;72.30;;;;;;5092979;28;20046;-57
2021/07/28 03:51:57;;;;;;;13.32;6.07;;;29.70;73.20;;;;;;5093493;28;20046;-56
2021/07/28 03:54:24;;;;;;;8.52;5.05;;;29.60;75.00;;;;;;5093196;28;20032;-57
2021/07/28 03:56:52;;;;;;;18.10;7.15;;;29.60;77.00;;;;;;5093093;28;20054;-54
2021/07/28 03:59:20;;;;;;;6.68;5.45;;;29.50;77.30;;;;;;5090374;28;20039;-55
2021/07/28 04:01:49;;;;;;;7.75;5.07;;;29.50;77.90;;;;;;5083028;28;20118;-55
2021/07/28 04:04:17;;;;;;;6.18;4.30;;;29.40;78.70;;;;;;5092866;28;20036;-56
2021/07/28 04:06:44;;;;;;;6.47;4.07;;;29.50;79.40;;;;;;5083072;28;20044;-55
2021/07/28 04:09:12;;;;;;;7.32;4.68;;;29.40;80.10;;;;;;5093031;28;20086;-56
2021/07/28 04:11:40;;;;;;;6.65;4.53;;;29.50;80.50;;;;;;5093151;28;20042;-56
2021/07/28 04:14:07;;;;;;;6.78;5.20;;;29.40;80.40;;;;;;5074433;28;20114;-56
2021/07/28 04:16:35;;;;;;;7.88;4.38;;;29.50;79.70;;;;;;5083148;28;20490;-55
2021/07/28 04:19:03;;;;;;;7.35;4.15;;;29.50;79.60;;;;;;5091357;28;20043;-55
2021/07/28 04:21:30;;;;;;;8.70;5.00;;;29.50;79.60;;;;;;5081272;28;20036;-57
2021/07/28 04:23:58;;;;;;;5.90;4.63;;;29.50;79.30;;;;;;5091521;28;20040;-55
2021/07/28 04:26:26;;;;;;;7.15;4.25;;;29.50;78.90;;;;;;5080567;28;20048;-54
2021/07/28 04:28:53;;;;;;;6.55;4.53;;;29.50;79.20;;;;;;5074586;28;20049;-57
2021/07/28 04:31:21;;;;;;;6.75;4.10;;;29.50;79.60;;;;;;5092319;28;20131;-56
2021/07/28 04:33:49;;;;;;;8.07;4.45;;;29.60;79.80;;;;;;5092148;28;20493;-56
2021/07/28 04:36:17;;;;;;;5.90;4.53;;;29.60;80.40;;;;;;5089087;28;20040;-57
2021/07/28 04:38:44;;;;;;;6.35;4.15;;;29.70;80.90;;;;;;5091648;28;20050;-57
2021/07/28 04:41:12;;;;;;;5.97;4.57;;;29.70;81.20;;;;;;5092363;28;20067;-56
2021/07/28 04:43:39;;;;;;;5.78;4.40;;;29.80;81.00;;;;;;5092261;28;20044;-56
2021/07/28 04:46:07;;;;;;;6.18;4.15;;;29.80;80.70;;;;;;5091283;28;20192;-56
2021/07/28 04:48:34;;;;;;;6.68;4.05;;;29.90;80.80;;;;;;5092432;28;20056;-55
2021/07/28 04:51:02;;;;;;;5.60;4.47;;;30.00;80.90;;;;;;5084105;28;20066;-56
2021/07/28 04:53:30;;;;;;;6.50;3.85;;;30.10;80.50;;;;;;5091957;28;20160;-56
2021/07/28 04:55:58;;;;;;;6.82;4.22;;;30.10;80.10;;;;;;5091560;28;20086;-57
2021/07/28 04:58:27;;;;;;;5.60;3.60;;;30.20;80.90;;;;;;5092120;28;20035;-56
2021/07/28 05:00:54;;;;;;;8.30;4.43;;;30.20;81.40;;;;;;5092064;28;20131;-56
2021/07/28 05:03:22;;;;;;;7.30;4.28;;;30.30;81.90;;;;;;5092970;28;20133;-55
2021/07/28 05:05:50;;;;;;;7.43;4.72;;;30.30;82.20;;;;;;5061863;28;20938;-56
2021/07/28 05:08:18;;;;;;;9.15;4.05;;;30.40;82.40;;;;;;5091645;28;20044;-56
2021/07/28 05:10:48;;;;;;;6.75;4.32;;;30.50;82.10;;;;;;5091833;28;20048;-57
2021/07/28 05:13:16;;;;;;;6.60;5.32;;;30.60;81.80;;;;;;5093067;28;20127;-57
2021/07/28 05:15:45;;;;;;;8.02;3.72;;;30.80;81.40;;;;;;5096118;28;20070;-56
2021/07/28 05:18:12;;;;;;;8.65;4.82;;;30.90;81.90;;;;;;5095347;28;20067;-56
2021/07/28 05:20:40;;;;;;;8.32;4.05;;;31.00;82.10;;;;;;5095889;28;20122;-57
2021/07/28 05:23:08;;;;;;;6.22;3.90;;;31.10;82.40;;;;;;5076534;28;20090;-56
2021/07/28 05:25:35;;;;;;;7.80;4.50;;;31.20;82.70;;;;;;5092462;28;20130;-57
2021/07/28 05:28:05;;;;;;;6.28;4.35;;;31.30;83.20;;;;;;5096260;28;20040;-56
2021/07/28 05:30:33;;;;;;;7.88;4.88;;;31.40;83.40;;;;;;5087394;28;20382;-57
2021/07/28 05:33:01;;;;;;;8.35;4.85;;;31.50;83.20;;;;;;5095852;28;20040;-56
2021/07/28 05:35:28;;;;;;;7.50;4.80;;;31.70;82.70;;;;;;5087399;28;20051;-56
2021/07/28 05:37:59;;;;;;;10.27;4.88;;;31.70;82.10;;;;;;5096257;28;20136;-56
2021/07/28 05:40:27;;;;;;;6.65;4.75;;;31.90;82.30;;;;;;5088288;28;20528;-57
2021/07/28 05:42:55;;;;;;;5.93;4.85;;;32.00;82.30;;;;;;5095801;28;20051;-56
2021/07/28 05:45:24;;;;;;;6.75;4.15;;;32.10;82.10;;;;;;5088474;28;20048;-56
2021/07/28 05:47:51;;;;;;;6.22;4.18;;;32.20;81.90;;;;;;5096185;28;20127;-57
2021/07/28 05:50:19;;;;;;;6.43;4.47;;;32.30;81.40;;;;;;5088790;28;20040;-55
2021/07/28 05:52:47;;;;;;;7.75;4.93;;;32.40;80.60;;;;;;5095299;28;20044;-57
2021/07/28 05:55:15;;;;;;;7.07;4.95;;;32.50;80.50;;;;;;5088994;28;20044;-56
2021/07/28 05:57:43;;;;;;;8.77;4.97;;;32.40;80.10;;;;;;5096033;28;20044;-57
2021/07/28 06:00:11;;;;;;;9.07;5.18;;;32.40;79.60;;;;;;5095483;28;20040;-57
2021/07/28 06:02:39;;;;;;;8.85;5.13;;;32.40;79.40;;;;;;5090449;28;20127;-56
2021/07/28 06:05:07;;;;;;;8.73;5.53;;;32.50;79.50;;;;;;5095140;28;20048;-56
2021/07/28 06:07:34;;;;;;;8.25;5.53;;;32.60;78.70;;;;;;5089676;28;20055;-57
2021/07/28 06:10:02;;;;;;;10.20;6.07;;;32.70;77.60;;;;;;5090868;28;20115;-55
2021/07/28 06:12:30;;;;;;;7.78;5.55;;;32.80;77.30;;;;;;5089268;28;20554;-56
2021/07/28 06:14:57;;;;;;;7.97;5.22;;;32.90;77.40;;;;;;5094707;28;20047;-56
2021/07/28 06:17:25;;;;;;;9.10;5.78;;;33.00;77.60;;;;;;5088701;28;20071;-56
2021/07/28 06:19:53;;;;;;;11.85;8.02;;;33.10;78.10;;;;;;5094874;28;20044;-56
2021/07/28 06:22:20;;;;;;;11.98;7.80;;;33.10;78.00;;;;;;5095154;28;20048;-56
2021/07/28 06:24:48;;;;;;;8.77;5.65;;;33.20;78.00;;;;;;5094596;28;20524;-56
2021/07/28 06:27:16;;;;;;;10.25;6.10;;;33.30;77.60;;;;;;5095429;28;20078;-55
2021/07/28 06:29:43;;;;;;;8.25;6.38;;;33.40;77.40;;;;;;5094840;28;20052;-56
2021/07/28 06:32:19;;;;;;;9.60;6.00;;;33.60;76.80;;;;;;5095025;28;20047;-57
2021/07/28 06:34:47;;;;;;;8.30;6.57;;;33.70;76.60;;;;;;5094183;28;20047;-57
2021/07/28 06:37:14;;;;;;;12.77;6.55;;;33.90;76.10;;;;;;5094729;28;20047;-56
2021/07/28 06:39:42;;;;;;;8.95;5.55;;;34.00;75.80;;;;;;5090055;28;20512;-57
2021/07/28 06:42:10;;;;;;;7.95;5.85;;;34.10;75.60;;;;;;5048087;28;20044;-56
2021/07/28 06:44:37;;;;;;;9.45;6.00;;;34.20;75.00;;;;;;5067037;28;20043;-56
2021/07/28 06:47:05;;;;;;;9.75;6.20;;;34.30;74.60;;;;;;5085742;28;20040;-57
2021/07/28 06:49:32;;;;;;;9.07;7.07;;;34.50;74.10;;;;;;5090220;28;20051;-56
2021/07/28 06:52:00;;;;;;;8.90;5.82;;;34.50;72.50;;;;;;5094437;28;20052;-57
2021/07/28 06:54:28;;;;;;;11.45;6.15;;;34.70;72.40;;;;;;5094338;28;20106;-56
2021/07/28 06:56:55;;;;;;;5.93;5.32;;;34.70;72.70;;;;;;5083873;28;20052;-57
2021/07/28 06:59:23;;;;;;;8.63;5.68;;;34.80;72.40;;;;;;5091264;28;20036;-56
2021/07/28 07:01:50;;;;;;;8.65;5.88;;;34.90;70.80;;;;;;5094554;28;20039;-57
2021/07/28 07:04:18;;;;;;;10.43;6.10;;;35.00;70.20;;;;;;5094118;28;20032;-57
2021/07/28 07:06:45;;;;;;;7.93;5.63;;;35.10;68.20;;;;;;5085221;28;20704;-57
2021/07/28 07:09:13;;;;;;;10.35;5.40;;;35.30;67.20;;;;;;5094170;28;20073;-55
2021/07/28 07:11:41;;;;;;;7.88;5.13;;;35.50;67.00;;;;;;5094220;28;20040;-57
2021/07/28 07:14:08;;;;;;;8.77;5.10;;;35.60;66.20;;;;;;5093670;28;20504;-57
2021/07/28 07:16:36;;;;;;;10.00;5.10;;;35.60;65.80;;;;;;5093993;28;20043;-57
2021/07/28 07:19:04;;;;;;;10.60;4.88;;;35.70;65.80;;;;;;5091720;28;20032;-57
2021/07/28 07:21:32;;;;;;;10.60;5.90;;;35.80;65.90;;;;;;5089501;28;20056;-55
2021/07/28 07:24:00;;;;;;;7.70;5.05;;;36.00;65.10;;;;;;5075935;28;20051;-55
2021/07/28 07:26:29;;;;;;;9.20;5.30;;;36.20;64.80;;;;;;5083532;28;20090;-55
2021/07/28 07:28:56;;;;;;;10.07;5.03;;;36.40;63.30;;;;;;5093193;28;20040;-56
2021/07/28 07:31:24;;;;;;;8.80;4.90;;;36.40;61.40;;;;;;5094075;28;20073;-55
2021/07/28 07:33:52;;;;;;;7.82;5.32;;;36.50;60.90;;;;;;5093313;28;20382;-54
2021/07/28 07:36:19;;;;;;;8.15;4.40;;;36.50;61.20;;;;;;5093315;28;20044;-55
2021/07/28 07:38:48;;;;;;;9.77;4.63;;;36.60;61.30;;;;;;5093346;28;20044;-56
2021/07/28 07:41:16;;;;;;;8.75;5.07;;;36.60;59.70;;;;;;5093598;28;20059;-57
2021/07/28 07:43:44;;;;;;;9.63;5.10;;;36.70;59.80;;;;;;5093104;28;20048;-56
2021/07/28 07:46:11;;;;;;;7.20;4.72;;;36.70;60.00;;;;;;5093766;28;20074;-56
2021/07/28 07:48:39;;;;;;;10.13;5.20;;;36.70;59.20;;;;;;5093352;28;20036;-57
2021/07/28 07:51:07;;;;;;;10.45;5.50;;;36.80;58.80;;;;;;5093470;28;20048;-55
2021/07/28 07:53:34;;;;;;;15.45;7.68;;;36.80;58.70;;;;;;5093337;28;20123;-56
2021/07/28 07:56:05;;;;;;;10.07;5.05;;;36.90;58.70;;;;;;5093149;28;20150;-53
2021/07/28 07:58:36;;;;;;;11.05;4.90;;;37.00;57.60;;;;;;5093570;28;20054;-53
2021/07/28 08:01:07;;;;;;;9.38;5.68;;;37.10;57.70;;;;;;5092759;28;20044;-58
2021/07/28 08:03:36;;;;;;;10.90;6.05;;;37.10;57.60;;;;;;5093200;28;20201;-55
2021/07/28 08:06:06;;;;;;;11.02;6.30;;;37.20;56.30;;;;;;5092893;28;20047;-55
2021/07/28 08:08:35;;;;;;;9.80;5.00;;;37.10;54.50;;;;;;5093122;28;20054;-55
2021/07/28 08:11:10;;;;;;;10.50;5.70;;;37.20;55.30;;;;;;5092606;28;20113;-55
2021/07/28 08:13:38;;;;;;;;;;;37.30;56.00;;;;;;5093338;28;20056;-54
2021/07/28 08:16:18;;;;;;;10.43;5.40;;;37.30;56.30;;;;;;5080852;28;19924;-55
2021/07/28 08:18:47;;;;;;;12.48;5.95;;;37.40;56.20;;;;;;5092908;28;20051;-56
2021/07/28 08:21:17;;;;;;;11.30;6.32;;;37.40;55.60;;;;;;5078713;28;20535;-56
2021/07/28 08:23:46;;;;;;;10.63;6.80;;;37.50;56.10;;;;;;5092777;28;20052;-56
2021/07/28 08:26:15;;;;;;;12.25;6.53;;;37.50;56.40;;;;;;5093053;28;20051;-56
2021/07/28 08:28:44;;;;;;;13.40;6.15;;;37.70;56.70;;;;;;5092478;28;20097;-57
2021/07/28 08:31:11;;;;;;;19.58;9.20;;;37.80;56.20;;;;;;5093233;28;20052;-57
2021/07/28 08:33:39;;;;;;;23.58;13.32;;;37.80;55.90;;;;;;5092659;28;20040;-57
2021/07/28 08:36:27;;;;;;;17.33;10.88;;;37.80;55.90;;;;;;5067578;28;20131;-57
2021/07/28 08:38:55;;;;;;;15.30;7.45;;;37.80;56.10;;;;;;5074979;28;20090;-57
2021/07/28 08:41:25;;;;;;;15.23;6.65;;;37.90;56.00;;;;;;5093186;28;20036;-55
2021/07/28 08:43:58;;;;;;;11.63;7.47;;;38.00;56.10;;;;;;5092772;28;20399;-57
2021/07/28 08:46:27;;;;;;;14.13;8.40;;;37.90;56.10;;;;;;5082227;28;20042;-57
2021/07/28 08:48:55;;;;;;;13.93;6.88;;;37.90;56.30;;;;;;5094344;28;20763;-57
2021/07/28 08:51:29;;;;;;;8.55;5.53;;;37.90;56.20;;;;;;5096670;28;20127;-57
2021/07/28 08:53:57;;;;;;;13.82;6.10;;;37.80;55.70;;;;;;5096537;28;20485;-57
2021/07/28 08:56:25;;;;;;;11.05;6.20;;;37.70;55.30;;;;;;5096626;28;20048;-57
2021/07/28 08:58:53;;;;;;;13.82;6.32;;;37.80;55.50;;;;;;5094876;28;20040;-56
2021/07/28 09:01:20;;;;;;;10.77;6.03;;;37.90;54.70;;;;;;5096751;28;20519;-57
2021/07/28 09:03:48;;;;;;;13.10;7.05;;;38.00;54.10;;;;;;5096240;28;20375;-57
2021/07/28 09:06:31;;;;;;;11.57;7.07;;;38.00;53.90;;;;;;5081258;28;20119;-56
2021/07/28 09:09:00;;;;;;;9.63;6.15;;;38.10;53.30;;;;;;5061619;28;20040;-57
2021/07/28 09:11:28;;;;;;;12.18;5.93;;;38.20;51.90;;;;;;5096785;28;20039;-57
2021/07/28 09:14:13;;;;;;;10.20;5.10;;;38.30;51.50;;;;;;5096466;28;20051;-56
2021/07/28 09:16:41;;;;;;;9.57;6.30;;;38.30;51.20;;;;;;5093042;28;20087;-57
2021/07/28 09:19:08;;;;;;;7.38;4.45;;;38.40;51.70;;;;;;5096126;28;20401;-59
2021/07/28 09:21:36;;;;;;;11.43;4.93;;;38.50;50.90;;;;;;5096167;28;20501;-56
2021/07/28 09:26:44;;;;;;;9.85;4.90;;;38.50;50.90;;;;;;5079966;28;20044;-56
2021/07/28 09:29:21;;;;;;;15.93;7.35;;;38.40;51.20;;;;;;5080640;28;20033;-55
2021/07/28 09:31:54;;;;;;;13.18;7.25;;;38.40;51.40;;;;;;5086149;28;20416;-56
2021/07/28 09:34:23;;;;;;;13.75;5.55;;;38.40;51.10;;;;;;5095947;28;20389;-57
2021/07/28 09:36:55;;;;;;;9.25;4.40;;;38.50;51.20;;;;;;5095708;28;20130;-56
2021/07/28 09:39:36;;;;;;;10.50;4.78;;;38.50;50.40;;;;;;5095533;28;20036;-56
2021/07/28 09:42:10;;;;;;;10.02;4.95;;;38.50;50.30;;;;;;5086909;28;20048;-56
2021/07/28 09:44:41;;;;;;;9.80;4.75;;;38.60;50.30;;;;;;5095503;28;20469;-56
2021/07/28 09:47:20;;;;;;;8.00;4.45;;;38.60;49.80;;;;;;5087788;28;20043;-56
2021/07/28 09:49:49;;;;;;;11.45;4.78;;;38.60;50.10;;;;;;5095237;28;20048;-56
2021/07/28 09:52:17;;;;;;;7.07;4.15;;;38.60;50.20;;;;;;5095573;28;20048;-56
2021/07/28 09:54:46;;;;;;;8.55;4.50;;;38.40;49.50;;;;;;5090708;28;20059;-57
2021/07/28 09:57:15;;;;;;;8.05;4.57;;;38.50;50.00;;;;;;5095655;28;20475;-57
2021/07/28 09:59:47;;;;;;;10.20;4.65;;;38.50;50.00;;;;;;5090489;28;20055;-57
2021/07/28 10:02:35;;;;;;;7.25;4.25;;;38.40;49.90;;;;;;5090296;28;20052;-57
2021/07/28 10:05:04;;;;;;;8.88;4.07;;;38.40;49.90;;;;;;5094637;28;20044;-57
2021/07/28 10:07:36;;;;;;;9.73;4.53;;;38.50;50.00;;;;;;5095278;28;20561;-56
2021/07/28 10:10:10;;;;;;;12.15;5.15;;;38.40;49.90;;;;;;5095271;28;20422;-56
2021/07/28 10:12:41;;;;;;;12.70;4.67;;;38.40;50.00;;;;;;5095438;28;20071;-57
2021/07/28 10:15:10;;;;;;;10.13;3.97;;;38.40;49.60;;;;;;5094655;28;20044;-56
2021/07/28 10:17:42;;;;;;;9.65;4.13;;;38.40;49.60;;;;;;5095082;28;20055;-56
2021/07/28 10:20:12;;;;;;;11.13;4.20;;;38.30;48.80;;;;;;5094844;28;20044;-57
2021/07/28 10:22:42;;;;;;;8.77;4.88;;;38.30;49.20;;;;;;5095248;28;20117;-57
2021/07/28 10:25:14;;;;;;;9.57;5.28;;;38.30;49.50;;;;;;5094728;28;20097;-57
2021/07/28 10:27:45;;;;;;;10.48;4.18;;;38.40;50.70;;;;;;5095302;28;20048;-56
2021/07/28 10:30:14;;;;;;;10.18;4.82;;;38.40;49.20;;;;;;5094494;28;20097;-56
2021/07/28 10:32:44;;;;;;;9.43;4.28;;;38.50;47.60;;;;;;5094847;28;20131;-56
2021/07/28 10:35:29;;;;;;;12.02;4.63;;;38.50;48.20;;;;;;5089024;28;20124;-57
2021/07/28 10:37:58;;;;;;;;;;;38.50;48.70;;;;;;5058946;28;20391;-57
2021/07/28 10:40:31;;;;;;;9.57;4.47;;;38.50;48.90;;;;;;5082671;28;20053;-58
2021/07/28 10:43:00;;;;;;;11.50;4.82;;;38.50;50.10;;;;;;5094790;28;20058;-57
2021/07/28 10:45:52;;;;;;;8.52;4.38;;;38.40;49.00;;;;;;5094409;28;20050;-57
2021/07/28 10:48:41;;;;;;;10.80;5.07;;;38.40;48.50;;;;;;5063905;28;20114;-57
2021/07/28 10:51:09;;;;;;;7.03;4.47;;;38.40;48.30;;;;;;5092855;28;20447;-56
2021/07/28 10:53:47;;;;;;;8.93;4.38;;;38.30;47.20;;;;;;5094450;28;20098;-57
2021/07/28 10:56:15;;;;;;;6.88;4.70;;;38.30;47.50;;;;;;5094452;28;20059;-57
2021/07/28 10:58:43;;;;;;;7.38;4.47;;;38.40;47.30;;;;;;5093751;28;20048;-56
2021/07/28 11:01:10;;;;;;;8.07;4.38;;;38.40;47.20;;;;;;5094555;28;20043;-57
2021/07/28 11:03:38;;;;;;;8.48;4.78;;;38.20;47.50;;;;;;5094112;28;20044;-57
2021/07/28 11:06:45;;;;;;;8.52;5.00;;;38.10;47.20;;;;;;5094228;28;20044;-57
2021/07/28 11:09:14;;;;;;;6.55;4.05;;;38.10;47.70;;;;;;5094144;28;20033;-57
2021/07/28 11:11:46;;;;;;;13.00;5.00;;;38.20;46.70;;;;;;5093964;28;20044;-57
2021/07/28 11:14:14;;;;;;;6.85;5.00;;;38.30;47.00;;;;;;5091910;28;20050;-56
2021/07/28 11:16:51;;;;;;;9.50;4.72;;;38.30;48.10;;;;;;5094157;28;20131;-56
2021/07/28 11:19:20;;;;;;;8.85;4.63;;;38.30;47.10;;;;;;5091348;28;20044;-57
2021/07/28 11:21:48;;;;;;;11.82;5.03;;;38.20;48.00;;;;;;5066894;28;20543;-57
2021/07/28 11:24:17;;;;;;;11.38;4.85;;;38.30;47.80;;;;;;5094056;28;20500;-58
2021/07/28 11:26:45;;;;;;;14.23;4.78;;;38.20;47.50;;;;;;5093840;28;20044;-58
2021/07/28 11:29:18;;;;;;;7.57;4.85;;;38.10;47.30;;;;;;5093771;28;20036;-58
2021/07/28 11:31:48;;;;;;;6.32;4.30;;;38.20;47.40;;;;;;5094151;28;20044;-58
2021/07/28 11:34:16;;;;;;;8.30;4.18;;;38.20;47.40;;;;;;5093458;28;20055;-58
2021/07/28 11:36:52;;;;;;;9.18;4.43;;;38.10;47.60;;;;;;5093780;28;20036;-57
2021/07/28 11:39:21;;;;;;;7.25;4.35;;;38.00;48.00;;;;;;5093343;28;20520;-58
2021/07/28 11:41:50;;;;;;;10.32;5.15;;;38.00;47.40;;;;;;5093821;28;20474;-58
2021/07/28 11:44:19;;;;;;;17.02;5.60;;;37.90;47.90;;;;;;5055754;28;20044;-58
2021/07/28 11:46:54;;;;;;;11.95;4.68;;;37.90;48.10;;;;;;5093547;28;20060;-58
2021/07/28 11:49:26;;;;;;;8.10;5.28;;;37.90;47.70;;;;;;5093152;28;20032;-57
2021/07/28 11:52:01;;;;;;;9.45;4.55;;;38.00;47.70;;;;;;5093500;28;20121;-57
2021/07/28 11:54:31;;;;;;;9.82;4.85;;;37.90;47.60;;;;;;5093011;28;20044;-58
2021/07/28 11:56:59;;;;;;;9.63;4.40;;;38.00;47.40;;;;;;5082677;28;20497;-57
2021/07/28 11:59:31;;;;;;;10.75;4.57;;;38.00;47.40;;;;;;5093199;28;20401;-57
2021/07/28 12:02:00;;;;;;;8.27;4.38;;;38.00;47.40;;;;;;5093572;28;20052;-58
2021/07/28 12:04:30;;;;;;;10.32;4.40;;;37.90;47.20;;;;;;5092691;28;20379;-57
2021/07/28 12:07:10;;;;;;;9.00;4.50;;;37.90;47.20;;;;;;5093119;28;20040;-58
2021/07/28 12:09:38;;;;;;;10.20;4.30;;;37.90;47.60;;;;;;5071953;28;20541;-58
2021/07/28 12:12:16;;;;;;;10.45;4.40;;;37.80;48.00;;;;;;5084900;28;20036;-58
2021/07/28 12:14:49;;;;;;;6.32;3.75;;;37.80;48.20;;;;;;5092861;28;20458;-58
2021/07/28 12:17:16;;;;;;;10.10;4.78;;;37.70;48.30;;;;;;5092748;28;20101;-58
2021/07/28 12:19:57;;;;;;;8.77;4.60;;;37.70;47.90;;;;;;5092902;28;20123;-58
2021/07/28 12:22:41;;;;;;;10.15;4.68;;;37.70;47.70;;;;;;5090333;28;20040;-58
2021/07/28 12:25:26;;;;;;;12.30;4.85;;;37.80;47.40;;;;;;5073928;28;20122;-58
2021/07/28 12:27:57;;;;;;;11.02;5.10;;;37.80;47.60;;;;;;5098218;28;20040;-58
2021/07/28 12:30:38;;;;;;;13.38;4.72;;;37.90;47.90;;;;;;5099223;28;20044;-58
2021/07/28 12:33:22;;;;;;;9.05;4.90;;;37.90;48.50;;;;;;5099904;28;20054;-58
2021/07/28 12:35:55;;;;;;;9.40;4.43;;;37.90;48.00;;;;;;5099239;28;20083;-57
2021/07/28 12:38:28;;;;;;;11.30;4.18;;;37.90;47.70;;;;;;5097884;28;20135;-58
2021/07/28 12:41:05;;;;;;;10.35;4.40;;;37.90;47.60;;;;;;5097683;28;20048;-58
2021/07/28 12:43:35;;;;;;;12.23;4.80;;;37.80;47.30;;;;;;5098508;28;20052;-58
2021/07/28 12:46:05;;;;;;;8.45;4.22;;;37.70;47.30;;;;;;5075454;28;20135;-58
2021/07/28 12:48:35;;;;;;;9.25;4.82;;;37.70;47.60;;;;;;5098278;28;20081;-58
2021/07/28 12:51:04;;;;;;;10.30;4.28;;;37.70;47.50;;;;;;5092004;28;20043;-57
2021/07/28 12:53:33;;;;;;;9.30;5.15;;;37.70;46.70;;;;;;5099709;28;20051;-58
2021/07/28 12:56:01;;;;;;;16.45;5.05;;;37.70;47.20;;;;;;5099249;28;20139;-58
2021/07/28 12:58:31;;;;;;;7.50;4.50;;;37.60;47.40;;;;;;5099729;28;20051;-58
2021/07/28 13:00:59;;;;;;;7.40;4.43;;;37.60;47.90;;;;;;5086581;28;20044;-58